| time (UTC) | temp C | wind direction | speed KPH | gust KPH | rain 1hr cm | rain 24hr cm | rain mn cm | humidity % | barometer mb |
| 20260507225000 | 21 | 145 | 0.0 | 0.0 | 0.00 | 0.43 | 0.43 | 95 | |
| 20260507224456 | 21 | 145 | 0.0 | 1.6 | 0.00 | 0.43 | 0.43 | 95 | |
| 20260507223953 | 21 | 209 | 0.0 | 0.0 | 0.00 | 0.43 | 0.43 | 95 | |
| 20260507223449 | 21 | 209 | 0.0 | 1.6 | 0.00 | 0.43 | 0.43 | 95 | |
| 20260507222946 | 21 | 242 | 3.2 | 6.4 | 0.00 | 0.43 | 0.43 | 95 | |
| 20260507222443 | 21 | 263 | 0.0 | 1.6 | 0.00 | 0.43 | 0.43 | 95 | |
| 20260507221939 | 21 | 259 | 0.0 | 3.2 | 0.00 | 0.43 | 0.43 | 95 | |
| 20260507221436 | 21 | 259 | 0.0 | 0.0 | 0.00 | 0.43 | 0.43 | 95 | |
| 20260507220932 | 21 | 260 | 1.6 | 3.2 | 0.00 | 0.43 | 0.43 | 95 | |
| 20260507220430 | 21 | 257 | 1.6 | 1.6 | 0.00 | 0.43 | 0.43 | 95 | |
| 20260507215927 | 21 | 59 | 1.6 | 3.2 | 0.43 | 0.43 | 0.43 | 95 | |
| 20260507215423 | 21 | 213 | 0.0 | 1.6 | 0.61 | 0.41 | 0.41 | 95 | |
| 20260507214920 | 21 | 109 | 0.0 | 1.6 | 0.30 | 0.33 | 0.33 | 94 | |
| 20260507214418 | 21 | 74 | 1.6 | 3.2 | 0.13 | 0.28 | 0.28 | 94 | |
| 20260507213913 | 21 | 202 | 0.0 | 0.0 | 0.30 | 0.28 | 0.28 | 93 | |
| 20260507213410 | 22 | 204 | 0.0 | 0.0 | 0.18 | 0.25 | 0.25 | 93 | |
| 20260507212907 | 22 | 205 | 0.0 | 3.2 | 0.00 | 0.23 | 0.23 | 94 | |
| 20260507212403 | 22 | 166 | 4.8 | 4.8 | 0.00 | 0.23 | 0.23 | 94 | |
| 20260507211900 | 22 | 264 | 4.8 | 4.8 | 0.61 | 0.23 | 0.23 | 94 | |
| 20260507211356 | 22 | 192 | 0.0 | 1.6 | 0.61 | 0.23 | 0.23 | 94 | |
| 20260507210853 | 22 | 188 | 0.0 | 0.0 | 0.00 | 0.13 | 0.13 | 94 | |
| 20260507210350 | 22 | 189 | 1.6 | 1.6 | 0.00 | 0.13 | 0.13 | 94 | |
| 20260507205847 | 22 | 135 | 0.0 | 1.6 | 0.00 | 0.13 | 0.13 | 94 | |
| 20260507205344 | 23 | 246 | 4.8 | 6.4 | 0.18 | 0.13 | 0.13 | 94 | |
| 20260507204840 | 23 | 227 | 3.2 | 6.4 | 0.00 | 0.10 | 0.10 | 93 | |
| 20260507204337 | 23 | 186 | 1.6 | 3.2 | 0.00 | 0.10 | 0.10 | 93 | |
| 20260507203835 | 23 | 204 | 1.6 | 4.8 | 0.00 | 0.10 | 0.10 | 93 | |
| 20260507203333 | 23 | 198 | 1.6 | 4.8 | 0.00 | 0.10 | 0.10 | 93 | |
| 20260507202828 | 23 | 235 | 3.2 | 4.8 | 0.00 | 0.10 | 0.10 | 92 | |
| 20260507202325 | 23 | 194 | 1.6 | 1.6 | 0.00 | 0.10 | 0.10 | 93 | |
| 20260507201820 | 23 | 202 | 0.0 | 3.2 | 0.00 | 0.10 | 0.10 | 93 | |
| 20260507201316 | 23 | 224 | 3.2 | 6.4 | 0.00 | 0.10 | 0.10 | 93 | |
| 20260507200813 | 23 | 212 | 3.2 | 11.3 | 0.00 | 0.10 | 0.10 | 93 | |
| 20260507200309 | 23 | 218 | 3.2 | 4.8 | 0.00 | 0.10 | 0.10 | 92 | |
| 20260507195805 | 23 | 181 | 1.6 | 9.7 | 0.00 | 0.10 | 0.10 | 93 | |
| 20260507195305 | 23 | 207 | 6.4 | 6.4 | 0.00 | 0.10 | 0.10 | 92 | |
| 20260507194800 | 23 | 271 | 4.8 | 4.8 | 0.00 | 0.10 | 0.10 | 92 | |
| 20260507194256 | 23 | 245 | 4.8 | 9.7 | 0.00 | 0.10 | 0.10 | 92 | |
| 20260507193753 | 23 | 243 | 6.4 | 6.4 | 0.00 | 0.10 | 0.10 | 92 | |
| 20260507193249 | 23 | 224 | 1.6 | 3.2 | 0.00 | 0.10 | 0.10 | 92 | |
| 20260507192745 | 23 | 235 | 1.6 | 4.8 | 0.00 | 0.10 | 0.10 | 92 | |
| 20260507192242 | 23 | 207 | 6.4 | 6.4 | 0.30 | 0.10 | 0.10 | 91 | |
| 20260507191738 | 23 | 172 | 3.2 | 6.4 | 0.43 | 0.10 | 0.10 | 92 | |
| 20260507191235 | 23 | 219 | 3.2 | 6.4 | 0.13 | 0.05 | 0.05 | 91 | |
| 20260507190732 | 23 | 208 | 3.2 | 6.4 | 0.00 | 0.03 | 0.03 | 91 | |
| 20260507190231 | 23 | 225 | 4.8 | 11.3 | 0.00 | 0.03 | 0.03 | 90 | |
| 20260507185729 | 23 | 198 | 3.2 | 12.9 | 0.00 | 0.03 | 0.03 | 90 | |
| 20260507185225 | 23 | 192 | 6.4 | 12.9 | 0.00 | 0.03 | 0.03 | 89 | |
| 20260507184723 | 24 | 212 | 4.8 | 6.4 | 0.18 | 0.03 | 0.03 | 89 | |
| 20260507184221 | 25 | 202 | 8.0 | 12.9 | 0.18 | 0.03 | 0.03 | 86 | |
| 20260507183717 | 25 | 212 | 6.4 | 9.7 | 0.00 | 0.00 | 0.00 | 85 | |
| 20260507183214 | 25 | 256 | 9.7 | 12.9 | 0.00 | 0.00 | 0.00 | 81 | |
| 20260507182712 | 26 | 144 | 8.0 | 12.9 | 0.00 | 0.00 | 0.00 | 79 | |
| 20260507182206 | 26 | 101 | 3.2 | 12.9 | 0.00 | 0.00 | 0.00 | 78 | |
| 20260507181703 | 26 | 243 | 12.9 | 14.5 | 0.00 | 0.00 | 0.00 | 79 | |
| 20260507181200 | 26 | 244 | 9.7 | 17.7 | 0.00 | 0.00 | 0.00 | 80 | |
| 20260507180656 | 26 | 229 | 9.7 | 16.1 | 0.00 | 0.00 | 0.00 | 79 | |
| 20260507180154 | 26 | 235 | 8.0 | 14.5 | 0.00 | 0.00 | 0.00 | 78 | |
| 20260507175649 | 26 | 241 | 9.7 | 11.3 | 0.00 | 0.00 | 0.00 | 80 | |
| 20260507175146 | 25 | 231 | 3.2 | 4.8 | 0.00 | 0.00 | 0.00 | 81 | |
| 20260507174643 | 25 | 220 | 4.8 | 6.4 | 0.00 | 0.00 | 0.00 | 81 | |
| 20260507174142 | 25 | 243 | 6.4 | 9.7 | 0.00 | 0.00 | 0.00 | 81 | |
| 20260507173639 | 26 | 209 | 3.2 | 4.8 | 0.00 | 0.00 | 0.00 | 79 | |
| 20260507173136 | 26 | 204 | 1.6 | 6.4 | 0.00 | 0.00 | 0.00 | 78 | |
| 20260507172632 | 26 | 212 | 4.8 | 6.4 | 0.00 | 0.00 | 0.00 | 78 | |
| 20260507172129 | 26 | 113 | 0.0 | 1.6 | 0.00 | 0.00 | 0.00 | 77 | |
| 20260507171624 | 26 | 138 | 0.0 | 3.2 | 0.00 | 0.00 | 0.00 | 78 | |
| 20260507171121 | 26 | 300 | 1.6 | 3.2 | 0.00 | 0.00 | 0.00 | 76 | |
| 20260507170618 | 26 | 211 | 0.0 | 3.2 | 0.00 | 0.00 | 0.00 | 74 | |
| 20260507170115 | 27 | 216 | 1.6 | 4.8 | 0.00 | 0.00 | 0.00 | 69 | |
| 20260507165610 | 27 | 110 | 0.0 | 3.2 | 0.00 | 0.00 | 0.00 | 69 | |
| 20260507165107 | 27 | 166 | 0.0 | 1.6 | 0.00 | 0.00 | 0.00 | 69 | |
| 20260507164603 | 27 | 147 | 1.6 | 1.6 | 0.00 | 0.00 | 0.00 | 71 | |
| 20260507164100 | 27 | 63 | 3.2 | 3.2 | 0.00 | 0.00 | 0.00 | 69 | |
| 20260507163558 | 27 | 130 | 1.6 | 1.6 | 0.00 | 0.00 | 0.00 | 71 | |
| 20260507163056 | 27 | 129 | 0.0 | 1.6 | 0.00 | 0.00 | 0.00 | 70 | |
| 20260507162555 | 27 | 91 | 3.2 | 6.4 | 0.00 | 0.00 | 0.00 | 68 | |
| 20260507162053 | 27 | 98 | 3.2 | 4.8 | 0.00 | 0.00 | 0.00 | 68 | |
| 20260507161549 | 26 | 101 | 0.0 | 1.6 | 0.00 | 0.00 | 0.00 | 71 | |
| 20260507161046 | 26 | 83 | 3.2 | 4.8 | 0.00 | 0.00 | 0.00 | 72 | |
| 20260507160542 | 26 | 90 | 4.8 | 6.4 | 0.00 | 0.00 | 0.00 | 72 | |
| 20260507160038 | 26 | 110 | 1.6 | 3.2 | 0.00 | 0.00 | 0.00 | 71 | |
| 20260507155534 | 26 | 80 | 6.4 | 9.7 | 0.00 | 0.00 | 0.00 | 70 | |
| 20260507155031 | 26 | 97 | 8.0 | 11.3 | 0.00 | 0.00 | 0.00 | 73 | |
| 20260507154528 | 26 | 95 | 4.8 | 11.3 | 0.00 | 0.00 | 0.00 | 74 | |
| 20260507154025 | 26 | 73 | 1.6 | 3.2 | 0.00 | 0.00 | 0.00 | 74 | |
| 20260507153522 | 26 | 99 | 3.2 | 4.8 | 0.00 | 0.00 | 0.00 | 72 | |
| 20260507153018 | 26 | 83 | 11.3 | 14.5 | 0.00 | 0.00 | 0.00 | 69 | |
| 20260507152514 | 26 | 86 | 1.6 | 1.6 | 0.00 | 0.00 | 0.00 | 69 | |
| 20260507152011 | 27 | 66 | 6.4 | 9.7 | 0.00 | 0.00 | 0.00 | 70 | |
| 20260507151507 | 26 | 68 | 4.8 | 6.4 | 0.00 | 0.00 | 0.00 | 72 | |
| 20260507151004 | 26 | 100 | 9.7 | 12.9 | 0.00 | 0.00 | 0.00 | 74 | |
| 20260507150501 | 26 | 90 | 3.2 | 6.4 | 0.00 | 0.00 | 0.00 | 75 | |
| 20260507145957 | 26 | 78 | 8.0 | 9.7 | 0.00 | 0.00 | 0.00 | 73 | |
| 20260507145452 | 26 | 97 | 8.0 | 11.3 | 0.00 | 0.00 | 0.00 | 74 | |
| 20260507144950 | 26 | 123 | 1.6 | 4.8 | 0.00 | 0.00 | 0.00 | 72 | |
| 20260507144446 | 26 | 92 | 9.7 | 12.9 | 0.00 | 0.00 | 0.00 | 72 | |
| 20260507143943 | 26 | 93 | 4.8 | 6.4 | 0.00 | 0.00 | 0.00 | 72 | |
| 20260507143441 | 26 | 97 | 4.8 | 12.9 | 0.00 | 0.00 | 0.00 | 72 | |
| 20260507142938 | 26 | 167 | 3.2 | 3.2 | 0.00 | 0.00 | 0.00 | 72 | |
| 20260507142433 | 26 | 73 | 3.2 | 9.7 | 0.00 | 0.00 | 0.00 | 70 | |
| 20260507141931 | 26 | 77 | 3.2 | 3.2 | 0.00 | 0.00 | 0.00 | 72 | |
| 20260507141427 | 26 | 164 | 6.4 | 6.4 | 0.00 | 0.00 | 0.00 | 73 | |
| 20260507140924 | 26 | 139 | 4.8 | 4.8 | 0.00 | 0.00 | 0.00 | 71 | |
| 20260507140420 | 26 | 124 | 1.6 | 1.6 | 0.00 | 0.00 | 0.00 | 75 | |
| 20260507135918 | 25 | 140 | 1.6 | 4.8 | 0.00 | 0.00 | 0.00 | 76 | |
| 20260507135414 | 26 | 90 | 9.7 | 12.9 | 0.00 | 0.00 | 0.00 | 73 | |
| 20260507134912 | 25 | 133 | 4.8 | 4.8 | 0.00 | 0.00 | 0.00 | 76 | |
| 20260507134408 | 25 | 130 | 3.2 | 3.2 | 0.00 | 0.00 | 0.00 | 79 | |
| 20260507133904 | 25 | 81 | 4.8 | 9.7 | 0.00 | 0.00 | 0.00 | 77 | |
| 20260507133400 | 25 | 174 | 3.2 | 4.8 | 0.00 | 0.00 | 0.00 | 77 | |
| 20260507132859 | 26 | 82 | 4.8 | 9.7 | 0.00 | 0.00 | 0.00 | 76 | |
| 20260507132355 | 26 | 82 | 3.2 | 6.4 | 0.00 | 0.00 | 0.00 | 77 | |
| 20260507131852 | 25 | 102 | 1.6 | 4.8 | 0.00 | 0.00 | 0.00 | 78 | |
| 20260507131349 | 25 | 102 | 0.0 | 3.2 | 0.00 | 0.00 | 0.00 | 81 | |
| 20260507130846 | 25 | 106 | 1.6 | 3.2 | 0.00 | 0.00 | 0.00 | 81 | |
| 20260507130343 | 24 | 65 | 3.2 | 9.7 | 0.00 | 0.00 | 0.00 | 81 | |
| 20260507125842 | 24 | 56 | 4.8 | 11.3 | 0.00 | 0.00 | 0.00 | 81 | |
| 20260507125339 | 25 | 88 | 6.4 | 14.5 | 0.00 | 0.00 | 0.00 | 81 | |
| 20260507124836 | 24 | 81 | 4.8 | 9.7 | 0.00 | 0.00 | 0.00 | 84 | |
| 20260507124332 | 23 | 101 | 3.2 | 9.7 | 0.00 | 0.00 | 0.00 | 85 | |
| 20260507123831 | 23 | 95 | 3.2 | 6.4 | 0.00 | 0.00 | 0.00 | 86 | |
| 20260507123328 | 23 | 86 | 1.6 | 1.6 | 0.00 | 0.00 | 0.00 | 88 | |
| 20260507122824 | 23 | 89 | 3.2 | 6.4 | 0.00 | 0.00 | 0.00 | 86 | |
| 20260507122319 | 22 | 75 | 1.6 | 4.8 | 0.00 | 0.00 | 0.00 | 90 | |
| 20260507121816 | 22 | 95 | 4.8 | 9.7 | 0.00 | 0.00 | 0.00 | 90 | |
| 20260507121311 | 22 | 78 | 3.2 | 6.4 | 0.00 | 0.00 | 0.00 | 91 | |
| 20260507120808 | 22 | 112 | 6.4 | 9.7 | 0.00 | 0.00 | 0.00 | 90 | |
| 20260507120304 | 22 | 93 | 6.4 | 11.3 | 0.00 | 0.00 | 0.00 | 88 | |
| 20260507115801 | 23 | 104 | 1.6 | 6.4 | 0.00 | 0.00 | 0.00 | 88 | |
| 20260507115257 | 23 | 123 | 3.2 | 9.7 | 0.00 | 0.00 | 0.00 | 87 | |
| 20260507114752 | 23 | 87 | 3.2 | 4.8 | 0.00 | 0.00 | 0.00 | 88 | |
| 20260507114250 | 22 | 89 | 1.6 | 6.4 | 0.00 | 0.00 | 0.00 | 89 | |
| 20260507113747 | 22 | 94 | 6.4 | 6.4 | 0.00 | 0.00 | 0.00 | 90 | |
| 20260507113244 | 22 | 94 | 3.2 | 9.7 | 0.00 | 0.00 | 0.00 | 89 | |
| 20260507112742 | 23 | 80 | 4.8 | 4.8 | 0.00 | 0.00 | 0.00 | 89 | |
| 20260507112238 | 22 | 92 | 0.0 | 1.6 | 0.00 | 0.00 | 0.00 | 92 | |
| 20260507111736 | 22 | 104 | 0.0 | 3.2 | 0.00 | 0.00 | 0.00 | 92 | |
| 20260507111233 | 22 | 90 | 3.2 | 1.6 | 0.00 | 0.00 | 0.00 | 93 | |
| 20260507110728 | 22 | 295 | 0.0 | 1.6 | 0.00 | 0.00 | 0.00 | 95 | |
| 20260507110225 | 21 | 96 | 1.6 | 1.6 | 0.00 | 0.00 | 0.00 | 96 | |
| 20260507105722 | 21 | 96 | 0.0 | 1.6 | 0.00 | 0.00 | 0.00 | 97 | |
| 20260507105218 | 21 | 96 | 1.6 | 1.6 | 0.00 | 0.00 | 0.00 | 97 | |
| 20260507104716 | 21 | 95 | 0.0 | 0.0 | 0.00 | 0.00 | 0.00 | 97 | |
| 20260507104212 | 21 | 95 | 0.0 | 0.0 | 0.00 | 0.00 | 0.00 | 98 | |
| 20260507103708 | 21 | 95 | 0.0 | 0.0 | 0.00 | 0.00 | 0.00 | 97 | |
| 20260507103205 | 21 | 96 | 0.0 | 1.6 | 0.00 | 0.00 | 0.00 | 98 | |
| 20260507102701 | 20 | 96 | 0.0 | 1.6 | 0.00 | 0.00 | 0.00 | 98 | |
| 20260507102158 | 20 | 95 | 0.0 | 0.0 | 0.00 | 0.00 | 0.00 | 98 | |
| 20260507101653 | 20 | 95 | 0.0 | 1.6 | 0.00 | 0.00 | 0.00 | 98 | |
| 20260507101149 | 20 | 95 | 0.0 | 3.2 | 0.00 | 0.00 | 0.00 | 98 | |
| 20260507100647 | 20 | 96 | 0.0 | 1.6 | 0.00 | 0.00 | 0.00 | 98 | |
| 20260507100145 | 20 | 96 | 0.0 | 1.6 | 0.00 | 0.00 | 0.00 | 98 | |
| 20260507095643 | 20 | 96 | 0.0 | 0.0 | 0.00 | 0.00 | 0.00 | 98 | |
| 20260507095139 | 20 | 96 | 0.0 | 0.0 | 0.00 | 0.00 | 0.00 | 98 | |
| 20260507094635 | 20 | 95 | 0.0 | 0.0 | 0.00 | 0.00 | 0.00 | 98 | |
| 20260507094132 | 20 | 96 | 0.0 | 0.0 | 0.00 | 0.00 | 0.00 | 98 | |
| 20260507093629 | 20 | 96 | 0.0 | 1.6 | 0.00 | 0.00 | 0.00 | 98 | |
| 20260507093128 | 20 | 96 | 0.0 | 1.6 | 0.00 | 0.00 | 0.00 | 98 | |
| 20260507092625 | 20 | 96 | 1.6 | 3.2 | 0.00 | 0.00 | 0.00 | 98 | |
| 20260507092121 | 20 | 142 | 0.0 | 3.2 | 0.00 | 0.00 | 0.00 | 98 | |
| 20260507091618 | 20 | 142 | 0.0 | 1.6 | 0.00 | 0.00 | 0.00 | 98 | |
| 20260507091114 | 20 | 142 | 0.0 | 1.6 | 0.00 | 0.00 | 0.00 | 98 | |
| 20260507090610 | 20 | 142 | 0.0 | 0.0 | 0.00 | 0.00 | 0.00 | 98 | |
| 20260507090107 | 20 | 142 | 0.0 | 0.0 | 0.00 | 0.00 | 0.00 | 98 | |
| 20260507085604 | 20 | 142 | 0.0 | 1.6 | 0.00 | 0.00 | 0.00 | 98 | |
| 20260507085101 | 20 | 142 | 0.0 | 0.0 | 0.00 | 0.00 | 0.00 | 98 | |
| 20260507084557 | 20 | 142 | 0.0 | 0.0 | 0.00 | 0.00 | 0.00 | 98 | |
| 20260507084054 | 20 | 142 | 1.6 | 1.6 | 0.00 | 0.00 | 0.00 | 98 | |
| 20260507083551 | 20 | 142 | 0.0 | 1.6 | 0.00 | 0.00 | 0.00 | 98 | |
| 20260507083048 | 20 | 142 | 1.6 | 1.6 | 0.00 | 0.00 | 0.00 | 98 | |
| 20260507082544 | 19 | 143 | 0.0 | 1.6 | 0.00 | 0.00 | 0.00 | 98 | |
| 20260507082041 | 19 | 143 | 0.0 | 0.0 | 0.00 | 0.00 | 0.00 | 97 | |
| 20260507081537 | 19 | 143 | 0.0 | 0.0 | 0.00 | 0.00 | 0.00 | 97 | |
| 20260507081034 | 19 | 143 | 0.0 | 0.0 | 0.00 | 0.00 | 0.00 | 97 | |
| 20260507080529 | 19 | 143 | 0.0 | 0.0 | 0.00 | 0.00 | 0.00 | 97 | |
| 20260507080026 | 19 | 143 | 0.0 | 0.0 | 0.00 | 0.00 | 0.00 | 97 | |
| 20260507075521 | 19 | 143 | 0.0 | 0.0 | 0.00 | 0.00 | 0.00 | 97 | |
| 20260507075018 | 18 | 143 | 0.0 | 0.0 | 0.00 | 0.00 | 0.00 | 97 | |
| 20260507074515 | 19 | 143 | 0.0 | 0.0 | 0.00 | 0.00 | 0.00 | 97 | |
| 20260507074014 | 19 | 143 | 0.0 | 0.0 | 0.00 | 0.00 | 0.00 | 97 | |
| 20260507073509 | 19 | 143 | 0.0 | 0.0 | 0.00 | 0.00 | 0.00 | 97 | |
| 20260507073006 | 20 | 143 | 0.0 | 0.0 | 0.00 | 0.00 | 0.00 | 97 | |
| 20260507072504 | 20 | 144 | 1.6 | 1.6 | 0.00 | 0.00 | 0.00 | 97 | |
| 20260507072000 | 20 | 143 | 0.0 | 0.0 | 0.00 | 0.00 | 0.00 | 97 | |
| 20260507071457 | 20 | 143 | 0.0 | 1.6 | 0.00 | 0.00 | 0.00 | 97 | |
| 20260507070954 | 20 | 143 | 0.0 | 0.0 | 0.00 | 0.00 | 0.00 | 97 | |
| 20260507070451 | 20 | 142 | 0.0 | 0.0 | 0.00 | 0.00 | 0.00 | 97 | |
| 20260507065948 | 20 | 142 | 0.0 | 0.0 | 0.00 | 0.00 | 0.00 | 97 | |
| 20260507065445 | 20 | 142 | 0.0 | 0.0 | 0.00 | 0.00 | 0.00 | 97 | |
| 20260507064942 | 20 | 142 | 0.0 | 0.0 | 0.00 | 0.00 | 0.00 | 97 | |
| 20260507064440 | 20 | 143 | 0.0 | 0.0 | 0.00 | 0.00 | 0.00 | 97 | |
| 20260507063937 | 20 | 143 | 0.0 | 0.0 | 0.00 | 0.00 | 0.00 | 96 | |
| 20260507063434 | 20 | 143 | 0.0 | 0.0 | 0.00 | 0.00 | 0.00 | 97 | |
| 20260507062932 | 20 | 142 | 0.0 | 0.0 | 0.00 | 0.00 | 0.00 | 97 | |
| 20260507062429 | 20 | 272 | 0.0 | 1.6 | 0.00 | 0.00 | 0.00 | 97 | |
| 20260507061926 | 20 | 272 | 0.0 | 0.0 | 0.00 | 0.00 | 0.00 | 97 | |
| 20260507061424 | 20 | 272 | 0.0 | 0.0 | 0.00 | 0.00 | 0.00 | 97 | |
| 20260507060922 | 20 | 272 | 0.0 | 0.0 | 0.00 | 0.00 | 0.00 | 97 | |
| 20260507060418 | 20 | 272 | 0.0 | 0.0 | 0.00 | 0.00 | 0.00 | 97 | |
| 20260507055915 | 20 | 272 | 0.0 | 0.0 | 0.00 | 0.00 | 0.00 | 97 | |
| 20260507055410 | 20 | 272 | 0.0 | 0.0 | 0.00 | 0.00 | 0.00 | 97 | |
| 20260507054908 | 20 | 272 | 0.0 | 0.0 | 0.00 | 0.00 | 0.00 | 97 | |
| 20260507054403 | 20 | 272 | 0.0 | 0.0 | 0.00 | 0.00 | 0.00 | 97 | |
| 20260507053901 | 20 | 272 | 0.0 | 0.0 | 0.00 | 0.00 | 0.00 | 97 | |
| 20260507053359 | 20 | 272 | 0.0 | 0.0 | 0.00 | 0.00 | 0.00 | 97 | |
| 20260507052857 | 19 | 272 | 0.0 | 0.0 | 0.00 | 0.00 | 0.00 | 97 | |
| 20260507052354 | 19 | 272 | 0.0 | 0.0 | 0.00 | 0.00 | 0.00 | 96 | |
| 20260507051851 | 19 | 272 | 0.0 | 0.0 | 0.00 | 0.00 | 0.00 | 97 | |
| 20260507051349 | 19 | 272 | 0.0 | 0.0 | 0.00 | 0.00 | 0.00 | 97 | |
| 20260507050845 | 19 | 272 | 0.0 | 0.0 | 0.00 | 0.00 | 0.00 | 97 | |
| 20260507050342 | 19 | 272 | 0.0 | 0.0 | 0.00 | 0.00 | 0.00 | 97 | |
| 20260507045839 | 18 | 272 | 0.0 | 0.0 | 0.00 | 0.00 | 0.00 | 97 | |
| 20260507045335 | 18 | 272 | 0.0 | 0.0 | 0.00 | 0.00 | 0.00 | 96 | |
| 20260507044832 | 18 | 272 | 0.0 | 0.0 | 0.00 | 0.00 | 0.00 | 96 | |
| 20260507044329 | 18 | 272 | 0.0 | 0.0 | 0.00 | 0.00 | 0.00 | 96 | |
| 20260507043825 | 18 | 272 | 0.0 | 0.0 | 0.00 | 0.00 | 0.00 | 97 | |
| 20260507043322 | 18 | 272 | 0.0 | 0.0 | 0.00 | 0.00 | 0.00 | 96 | |
| 20260507042818 | 18 | 272 | 0.0 | 0.0 | 0.00 | 0.00 | 0.00 | 96 | |
| 20260507042314 | 18 | 272 | 0.0 | 0.0 | 0.00 | 0.00 | 0.00 | 96 | |
| 20260507041811 | 18 | 272 | 0.0 | 0.0 | 0.00 | 0.00 | 0.00 | 96 | |
| 20260507041307 | 18 | 272 | 0.0 | 0.0 | 0.00 | 0.00 | 0.00 | 96 | |
| 20260507040805 | 18 | 272 | 1.6 | 1.6 | 0.00 | 0.00 | 0.00 | 96 | |
| 20260507040301 | 18 | 272 | 0.0 | 0.0 | 0.00 | 0.00 | 0.00 | 95 | |
| 20260507035756 | 18 | 272 | 0.0 | 0.0 | 0.00 | 0.00 | 0.00 | 96 | |
| 20260507035252 | 19 | 272 | 0.0 | 0.0 | 0.00 | 0.00 | 0.00 | 96 | |
| 20260507034750 | 18 | 272 | 0.0 | 0.0 | 0.00 | 0.00 | 0.00 | 96 | |
| 20260507034246 | 18 | 272 | 0.0 | 0.0 | 0.00 | 0.00 | 0.00 | 96 | |
| 20260507033745 | 18 | 272 | 0.0 | 0.0 | 0.00 | 0.00 | 0.00 | 96 | |
| 20260507033242 | 19 | 272 | 0.0 | 0.0 | 0.00 | 0.00 | 0.00 | 96 | |
| 20260507032739 | 18 | 272 | 0.0 | 0.0 | 0.00 | 0.00 | 0.00 | 96 | |
| 20260507032235 | 18 | 272 | 0.0 | 0.0 | 0.00 | 0.00 | 0.00 | 96 | |
| 20260507031732 | 19 | 272 | 0.0 | 0.0 | 0.00 | 0.00 | 0.00 | 95 | |
| 20260507031229 | 19 | 272 | 0.0 | 0.0 | 0.00 | 0.00 | 0.00 | 95 | |
| 20260507030726 | 19 | 272 | 0.0 | 0.0 | 0.00 | 0.00 | 0.00 | 95 | |
| 20260507030223 | 19 | 272 | 0.0 | 1.6 | 0.00 | 0.00 | 0.00 | 95 | |
| 20260507025720 | 19 | 272 | 0.0 | 0.0 | 0.00 | 0.00 | 0.00 | 95 | |
| 20260507025217 | 20 | 272 | 0.0 | 0.0 | 0.00 | 0.00 | 0.00 | 95 | |
| 20260507024715 | 20 | 272 | 0.0 | 0.0 | 0.00 | 0.00 | 0.00 | 95 | |
| 20260507024212 | 20 | 272 | 0.0 | 0.0 | 0.00 | 0.00 | 0.00 | 95 | |
| 20260507023707 | 20 | 272 | 0.0 | 1.6 | 0.00 | 0.00 | 0.00 | 95 | |
| 20260507023205 | 19 | 225 | 1.6 | 1.6 | 0.00 | 0.00 | 0.00 | 95 | |
| 20260507022702 | 19 | 213 | 0.0 | 0.0 | 0.00 | 0.00 | 0.00 | 95 | |
| 20260507022158 | 19 | 226 | 0.0 | 0.0 | 0.00 | 0.00 | 0.00 | 94 | |
| 20260507021654 | 20 | 213 | 0.0 | 0.0 | 0.00 | 0.00 | 0.00 | 94 | |
| 20260507021149 | 20 | 213 | 0.0 | 1.6 | 0.00 | 0.00 | 0.00 | 95 | |
| 20260507020649 | 20 | 213 | 0.0 | 0.0 | 0.00 | 0.00 | 0.00 | 95 | |
| 20260507020144 | 19 | 221 | 1.6 | 1.6 | 0.00 | 0.00 | 0.00 | 95 | |
| 20260507015643 | 19 | 213 | 0.0 | 0.0 | 0.00 | 0.00 | 0.00 | 95 | |
| 20260507015140 | 19 | 226 | 0.0 | 0.0 | 0.00 | 0.00 | 0.00 | 94 | |
| 20260507014636 | 19 | 226 | 0.0 | 0.0 | 0.00 | 0.00 | 0.00 | 94 | |
| 20260507014132 | 19 | 226 | 0.0 | 0.0 | 0.00 | 0.00 | 0.00 | 94 | |
| 20260507013629 | 20 | 213 | 0.0 | 0.0 | 0.00 | 0.00 | 0.00 | 93 | |
| 20260507013126 | 20 | 213 | 0.0 | 0.0 | 0.00 | 0.00 | 0.00 | 93 | |
| 20260507012623 | 20 | 213 | 0.0 | 0.0 | 0.00 | 0.00 | 0.00 | 93 | |
| 20260507012118 | 20 | 213 | 0.0 | 0.0 | 0.00 | 0.00 | 0.00 | 93 | |
| 20260507011617 | 20 | 213 | 0.0 | 0.0 | 0.00 | 0.00 | 0.00 | 92 | |
| 20260507011113 | 20 | 213 | 0.0 | 0.0 | 0.00 | 0.00 | 0.00 | 93 | |
| 20260507010608 | 20 | 213 | 0.0 | 0.0 | 0.00 | 0.00 | 0.00 | 92 | |
| 20260507010104 | 20 | 213 | 0.0 | 0.0 | 0.00 | 0.00 | 0.00 | 92 | |
| 20260507005602 | 20 | 213 | 0.0 | 0.0 | 0.00 | 0.00 | 0.00 | 92 | |
| 20260507005058 | 20 | 213 | 0.0 | 0.0 | 0.00 | 0.00 | 0.00 | 91 | |
| 20260507004555 | 20 | 213 | 0.0 | 0.0 | 0.00 | 0.00 | 0.00 | 91 | |
| 20260507004052 | 20 | 213 | 0.0 | 0.0 | 0.00 | 0.00 | 0.00 | 91 | |
| 20260507003548 | 21 | 213 | 0.0 | 0.0 | 0.00 | 0.00 | 0.00 | 90 | |
| 20260507003043 | 21 | 213 | 0.0 | 0.0 | 0.00 | 0.00 | 0.00 | 90 | |
| 20260507002540 | 21 | 213 | 0.0 | 0.0 | 0.00 | 0.00 | 0.00 | 89 | |
| 20260507002036 | 21 | 213 | 0.0 | 0.0 | 0.00 | 0.00 | 0.00 | 89 | |
| 20260507001533 | 21 | 213 | 0.0 | 0.0 | 0.00 | 0.00 | 0.00 | 88 | |
| 20260507001030 | 21 | 221 | 0.0 | 0.0 | 0.00 | 0.00 | 0.00 | 88 | |
| 20260507000526 | 21 | 213 | 1.6 | 3.2 | 0.00 | 0.00 | 0.00 | 88 | |
| 20260507000023 | 21 | 225 | 1.6 | 1.6 | 0.00 | 0.00 | 0.00 | 87 | |
| 20260506235520 | 21 | 227 | 3.2 | 3.2 | 0.00 | 0.00 | 0.00 | 87 | |
| 20260506235015 | 21 | 217 | 1.6 | 3.2 | 0.00 | 0.00 | 0.00 | 87 | |
| 20260506234513 | 22 | 210 | 1.6 | 3.2 | 0.00 | 0.00 | 0.00 | 86 | |
| 20260506234010 | 22 | 210 | 1.6 | 1.6 | 0.00 | 0.00 | 0.00 | 86 | |
| 20260506233506 | 22 | 210 | 3.2 | 3.2 | 0.00 | 0.00 | 0.00 | 85 | |
| 20260506233003 | 22 | 200 | 1.6 | 3.2 | 0.00 | 0.00 | 0.00 | 85 | |
| 20260506232459 | 22 | 206 | 3.2 | 3.2 | 0.00 | 0.00 | 0.00 | 85 | |
| 20260506231955 | 22 | 205 | 3.2 | 3.2 | 0.00 | 0.00 | 0.00 | 85 | |
| 20260506231453 | 22 | 213 | 3.2 | 3.2 | 0.00 | 0.00 | 0.00 | 85 | |
| 20260506230950 | 22 | 193 | 3.2 | 3.2 | 0.00 | 0.00 | 0.00 | 84 | |
| 20260506230446 | 22 | 190 | 1.6 | 3.2 | 0.00 | 0.00 | 0.00 | 84 | |
| 20260506225943 | 22 | 211 | 1.6 | 3.2 | 0.00 | 0.00 | 0.00 | 84 | |
| 20260506225440 | 22 | 182 | 1.6 | 3.2 | 0.00 | 0.00 | 0.00 | 84 |